Time;durP1;ratioP1;P1;durP2;ratioP2;P2;SDS_P1;SDS_P2;PMS_P1;PMS_P2;Temp;Humidity;BMP_temperature;BMP_pressure;BME280_temperature;BME280_humidity;BME280_pressure;Samples;Min_cycle;Max_cycle;Signal;HPM_P1;HPM_P2
2023/01/01 00:00:00;;;;;;;6.20;3.90;;;12.90;99.90;;;;;;5071344;28;20130;-68
2023/01/01 00:02:26;;;;;;;10.93;4.47;;;12.80;99.90;;;;;;5092878;28;20047;-68
2023/01/01 00:04:51;;;;;;;10.85;4.38;;;12.80;99.90;;;;;;5140984;27;20056;-68
2023/01/01 00:07:17;;;;;;;6.97;4.13;;;12.70;99.90;;;;;;5091233;28;20039;-68
2023/01/01 00:12:27;;;;;;;12.90;5.35;;;12.70;99.90;;;;;;5087837;28;20122;-68
2023/01/01 00:14:52;;;;;;;7.88;4.15;;;12.70;99.90;;;;;;5088799;28;20469;-68
2023/01/01 00:17:18;;;;;;;13.68;5.65;;;12.60;99.90;;;;;;5088292;28;20090;-68
2023/01/01 00:19:43;;;;;;;9.30;5.57;;;12.60;99.90;;;;;;5089238;28;20261;-68
2023/01/01 00:22:09;;;;;;;15.55;7.13;;;12.60;99.90;;;;;;5140481;27;20043;-68
2023/01/01 00:24:34;;;;;;;18.63;7.80;;;12.50;99.90;;;;;;5108318;28;20131;-68
2023/01/01 00:27:00;;;;;;;17.35;8.73;;;12.50;99.90;;;;;;5142506;27;20321;-68
2023/01/01 00:29:25;;;;;;;16.92;9.13;;;12.50;99.90;;;;;;5106402;28;20048;-68
2023/01/01 00:31:51;;;;;;;24.80;10.60;;;12.40;99.90;;;;;;5108819;28;20150;-68
2023/01/01 00:34:17;;;;;;;22.70;9.20;;;12.40;99.90;;;;;;5094669;28;20094;-68
2023/01/01 00:36:42;;;;;;;18.95;10.35;;;12.40;99.90;;;;;;5071116;28;20296;-68
2023/01/01 00:39:08;;;;;;;18.17;9.73;;;12.30;99.90;;;;;;5087697;28;20071;-68
2023/01/01 00:41:33;;;;;;;19.73;10.30;;;12.30;99.90;;;;;;5094466;28;20047;-68
2023/01/01 00:43:59;;;;;;;17.90;9.15;;;12.30;99.90;;;;;;5107463;28;20496;-68
2023/01/01 00:46:24;;;;;;;14.98;8.23;;;12.20;99.90;;;;;;5090146;28;20412;-68
2023/01/01 00:48:50;;;;;;;13.38;7.93;;;12.30;99.90;;;;;;5142239;27;20132;-68
2023/01/01 00:51:16;;;;;;;12.77;7.03;;;12.20;99.90;;;;;;5145790;27;20032;-68
2023/01/01 00:53:41;;;;;;;14.20;8.88;;;12.20;99.90;;;;;;5111081;27;20437;-68
2023/01/01 00:56:07;;;;;;;15.70;7.40;;;12.30;99.90;;;;;;5098362;27;20058;-68
2023/01/01 00:58:32;;;;;;;10.73;6.22;;;12.30;99.90;;;;;;5092694;28;20090;-69
2023/01/01 01:00:59;;;;;;;14.02;6.38;;;12.30;99.90;;;;;;5124642;27;20066;-68
2023/01/01 01:03:27;;;;;;;16.00;6.95;;;12.30;99.90;;;;;;5091289;28;20378;-69
2023/01/01 01:05:58;;;;;;;15.85;6.57;;;12.30;99.90;;;;;;5090854;28;20056;-68
2023/01/01 01:08:24;;;;;;;13.57;7.40;;;12.40;99.90;;;;;;5108048;28;20445;-69
2023/01/01 01:10:50;;;;;;;14.93;6.15;;;12.40;99.90;;;;;;5091197;28;20067;-69
2023/01/01 01:13:16;;;;;;;13.10;6.75;;;12.50;99.90;;;;;;5091194;28;20129;-69
2023/01/01 01:15:41;;;;;;;12.25;6.25;;;12.50;99.90;;;;;;5090673;28;20046;-69
2023/01/01 01:18:07;;;;;;;9.27;4.85;;;12.50;99.90;;;;;;5090327;28;20058;-69
2023/01/01 01:20:33;;;;;;;12.75;6.88;;;12.50;99.90;;;;;;5130131;27;20031;-69
2023/01/01 01:22:58;;;;;;;13.18;7.60;;;12.50;99.90;;;;;;5089474;28;20653;-69
2023/01/01 01:25:24;;;;;;;12.85;6.68;;;12.60;99.90;;;;;;5127648;27;20058;-68
2023/01/01 01:27:50;;;;;;;16.33;7.72;;;12.60;99.90;;;;;;5114788;27;20047;-69
2023/01/01 01:30:15;;;;;;;14.95;7.60;;;12.50;99.90;;;;;;5098325;27;20508;-70
2023/01/01 01:32:41;;;;;;;17.13;6.80;;;12.60;99.90;;;;;;5094437;27;20382;-69
2023/01/01 01:35:07;;;;;;;11.60;6.80;;;12.50;99.90;;;;;;5129153;27;20117;-69
2023/01/01 01:37:32;;;;;;;12.13;6.85;;;12.50;99.90;;;;;;5095306;28;20155;-68
2023/01/01 01:39:58;;;;;;;14.80;6.90;;;12.60;99.90;;;;;;5131181;27;20206;-69
2023/01/01 01:42:24;;;;;;;14.57;6.38;;;12.60;99.90;;;;;;5090092;28;20109;-69
2023/01/01 01:44:53;;;;;;;18.05;8.45;;;12.60;99.90;;;;;;5081807;28;20130;-69
2023/01/01 01:47:47;;;;;;;15.48;7.03;;;12.60;99.90;;;;;;5093566;27;20732;-68
2023/01/01 01:50:16;;;;;;;11.55;7.03;;;12.60;99.90;;;;;;5103927;27;20400;-69
2023/01/01 01:52:57;;;;;;;16.17;7.45;;;12.60;99.90;;;;;;5143664;27;20047;-68
2023/01/01 01:55:23;;;;;;;14.25;7.20;;;12.60;99.90;;;;;;5103200;27;20043;-69
2023/01/01 01:57:49;;;;;;;10.90;6.95;;;12.50;99.90;;;;;;5103562;28;20216;-69
2023/01/01 02:00:15;;;;;;;16.15;6.35;;;12.60;99.90;;;;;;5108183;28;20185;-68
2023/01/01 02:02:53;;;;;;;14.10;6.95;;;12.50;99.90;;;;;;5100443;27;20050;-68
2023/01/01 02:05:20;;;;;;;12.93;5.90;;;12.50;99.90;;;;;;5101008;27;20043;-69
2023/01/01 02:07:46;;;;;;;13.73;6.40;;;12.60;99.90;;;;;;5105435;28;20081;-68
2023/01/01 02:10:12;;;;;;;15.25;6.28;;;12.60;99.90;;;;;;5124496;27;20081;-68
2023/01/01 02:12:37;;;;;;;10.55;5.63;;;12.50;99.90;;;;;;5090024;27;20036;-69
2023/01/01 02:15:04;;;;;;;9.13;5.25;;;12.60;99.90;;;;;;5103707;28;20046;-68
2023/01/01 02:17:58;;;;;;;9.57;5.55;;;12.60;99.90;;;;;;5101803;28;20073;-69
2023/01/01 02:20:45;;;;;;;10.00;5.50;;;12.60;99.90;;;;;;5108251;28;20058;-69
2023/01/01 02:23:25;;;;;;;9.73;5.50;;;12.60;99.90;;;;;;5107884;28;20096;-69
2023/01/01 02:26:14;;;;;;;11.15;5.43;;;12.60;99.90;;;;;;5089305;28;20039;-68
2023/01/01 02:28:54;;;;;;;9.50;4.88;;;12.60;99.90;;;;;;5126489;27;20097;-69
2023/01/01 02:31:29;;;;;;;8.80;4.63;;;12.60;99.90;;;;;;5098174;27;20032;-69
2023/01/01 02:33:59;;;;;;;10.43;5.40;;;12.70;99.90;;;;;;5102318;27;20075;-69
2023/01/01 02:36:27;;;;;;;10.25;5.20;;;12.70;99.90;;;;;;5107196;28;20040;-69
2023/01/01 02:38:55;;;;;;;13.57;5.03;;;12.70;99.90;;;;;;5110973;28;20047;-69
2023/01/01 02:41:30;;;;;;;7.38;3.63;;;12.70;99.90;;;;;;5107327;28;20070;-68
2023/01/01 02:43:56;;;;;;;11.47;4.27;;;12.70;99.90;;;;;;5109673;28;20050;-69
2023/01/01 02:46:22;;;;;;;9.50;4.55;;;12.70;99.90;;;;;;5127262;27;20044;-68
2023/01/01 02:48:52;;;;;;;9.38;4.05;;;12.70;99.90;;;;;;5133992;27;20404;-68
2023/01/01 02:51:45;;;;;;;6.00;3.00;;;12.70;99.90;;;;;;5105175;28;20449;-69
2023/01/01 02:54:17;;;;;;;8.68;4.38;;;12.70;99.90;;;;;;5132664;27;20039;-69
2023/01/01 02:57:20;;;;;;;9.60;4.30;;;12.70;99.90;;;;;;5088994;28;20131;-68
2023/01/01 03:00:26;;;;;;;12.60;3.42;;;12.70;99.90;;;;;;5095379;28;20164;-69
2023/01/01 03:03:08;;;;;;;6.20;4.45;;;12.70;99.90;;;;;;5082519;28;20142;-68
2023/01/01 03:08:46;;;;;;;6.32;2.65;;;12.70;99.90;;;;;;5106953;28;20059;-68
2023/01/01 03:11:15;;;;;;;16.17;4.18;;;12.80;99.90;;;;;;5092233;27;20112;-68
2023/01/01 03:13:48;;;;;;;6.55;2.72;;;12.80;99.90;;;;;;5107426;28;20601;-68
2023/01/01 03:16:20;;;;;;;6.03;2.70;;;12.80;99.90;;;;;;5108399;28;20046;-68
2023/01/01 03:19:10;;;;;;;5.00;2.30;;;12.80;99.90;;;;;;5088513;28;20106;-68
2023/01/01 03:21:53;;;;;;;3.92;2.38;;;12.80;99.90;;;;;;5088783;28;20100;-68
2023/01/01 03:24:32;;;;;;;7.15;2.20;;;12.80;99.90;;;;;;5101988;28;20094;-68
2023/01/01 03:27:06;;;;;;;8.18;2.28;;;12.90;99.90;;;;;;5092907;28;20471;-69
2023/01/01 03:29:38;;;;;;;3.42;1.63;;;12.90;99.90;;;;;;5093438;28;20101;-68
2023/01/01 03:32:06;;;;;;;3.13;1.65;;;13.00;99.90;;;;;;5078772;28;20043;-68
2023/01/01 03:34:37;;;;;;;3.28;1.48;;;13.00;99.90;;;;;;5101606;28;20051;-68
2023/01/01 03:37:06;;;;;;;6.13;1.88;;;13.00;99.90;;;;;;5118369;27;20032;-68
2023/01/01 03:39:47;;;;;;;3.22;1.48;;;13.10;99.90;;;;;;5106260;28;20055;-69
2023/01/01 03:42:37;;;;;;;2.10;1.10;;;13.00;99.90;;;;;;5094743;28;20522;-68
2023/01/01 03:45:28;;;;;;;2.35;1.05;;;13.10;99.90;;;;;;5070870;28;20066;-68
2023/01/01 03:47:55;;;;;;;1.98;1.00;;;13.20;99.90;;;;;;5072543;28;20048;-68
2023/01/01 03:50:27;;;;;;;4.80;1.00;;;13.20;99.90;;;;;;5089561;28;20024;-68
2023/01/01 03:53:09;;;;;;;4.75;1.17;;;13.20;99.90;;;;;;5088224;28;20040;-69
2023/01/01 03:56:17;;;;;;;1.58;0.55;;;13.20;99.90;;;;;;5091773;28;20465;-68
2023/01/01 03:58:52;;;;;;;2.65;0.98;;;13.20;99.90;;;;;;5097860;28;20043;-69
2023/01/01 04:01:25;;;;;;;;;;;13.30;99.90;;;;;;5107158;28;20584;-68
2023/01/01 04:03:51;;;;;;;0.70;0.50;;;13.30;99.90;;;;;;5089134;28;19923;-69
2023/01/01 04:06:17;;;;;;;2.92;0.98;;;13.30;99.90;;;;;;5107937;28;20040;-68
2023/01/01 04:08:45;;;;;;;4.38;0.90;;;13.30;99.90;;;;;;5088979;28;20050;-68
2023/01/01 04:14:03;;;;;;;2.13;0.75;;;13.30;99.90;;;;;;5087701;28;20044;-68
2023/01/01 04:16:29;;;;;;;5.72;1.40;;;13.30;99.90;;;;;;5093471;28;20492;-69
2023/01/01 04:18:54;;;;;;;1.20;0.60;;;13.30;99.90;;;;;;5091173;28;20119;-69
2023/01/01 04:21:20;;;;;;;5.55;1.27;;;13.30;99.90;;;;;;5128889;27;20036;-68
2023/01/01 04:23:45;;;;;;;2.53;0.82;;;13.30;99.90;;;;;;5098396;28;20067;-68
2023/01/01 04:26:14;;;;;;;2.30;1.05;;;13.30;99.90;;;;;;5135814;27;20036;-68
2023/01/01 04:28:41;;;;;;;2.30;0.80;;;13.30;99.90;;;;;;5111953;28;20154;-68
2023/01/01 04:31:07;;;;;;;2.70;0.68;;;13.30;99.90;;;;;;5112066;28;20035;-68
2023/01/01 04:33:33;;;;;;;1.42;0.85;;;13.30;99.90;;;;;;5110797;28;20117;-68
2023/01/01 04:36:06;;;;;;;1.13;0.68;;;13.30;99.90;;;;;;5100497;28;20035;-68
2023/01/01 04:38:33;;;;;;;5.72;1.00;;;13.30;99.90;;;;;;5127999;27;20054;-68
2023/01/01 04:41:00;;;;;;;1.02;0.52;;;13.20;99.90;;;;;;5099788;28;20039;-68
2023/01/01 04:43:25;;;;;;;2.55;1.00;;;13.10;99.90;;;;;;5110476;28;20497;-68
2023/01/01 04:45:59;;;;;;;3.75;1.00;;;13.00;99.90;;;;;;5144731;27;20047;-68
2023/01/01 04:48:25;;;;;;;0.93;0.50;;;13.00;99.90;;;;;;5093607;28;20043;-68
2023/01/01 04:50:59;;;;;;;1.67;0.73;;;12.90;99.90;;;;;;5109263;28;20063;-68
2023/01/01 04:53:28;;;;;;;3.25;1.20;;;12.80;99.90;;;;;;5110766;27;20043;-68
2023/01/01 04:55:54;;;;;;;0.80;0.43;;;12.80;99.90;;;;;;5102911;28;20048;-68
2023/01/01 04:58:20;;;;;;;5.45;1.20;;;12.80;99.90;;;;;;5145280;27;20047;-69
2023/01/01 05:00:50;;;;;;;4.50;1.13;;;12.70;99.90;;;;;;5124413;27;20052;-69
2023/01/01 05:03:16;;;;;;;2.05;0.85;;;12.70;99.90;;;;;;5095502;28;20032;-68
2023/01/01 05:05:42;;;;;;;1.33;1.05;;;12.70;99.90;;;;;;5105976;28;20056;-69
2023/01/01 05:08:07;;;;;;;2.03;0.68;;;12.80;99.90;;;;;;5119767;27;20061;-68
2023/01/01 05:10:33;;;;;;;4.50;0.68;;;12.70;99.90;;;;;;5091658;28;20036;-69
2023/01/01 05:12:59;;;;;;;2.33;0.75;;;12.80;99.90;;;;;;5091947;28;20036;-69
2023/01/01 05:15:24;;;;;;;1.98;0.40;;;12.80;99.90;;;;;;5090473;28;20409;-68
2023/01/01 05:17:50;;;;;;;1.42;0.57;;;12.80;99.90;;;;;;5104605;28;20039;-69
2023/01/01 05:20:15;;;;;;;5.05;0.70;;;12.80;99.90;;;;;;5110296;28;20439;-69
2023/01/01 05:22:41;;;;;;;2.50;0.70;;;12.80;99.90;;;;;;5100131;28;20077;-69
2023/01/01 05:25:07;;;;;;;4.05;0.77;;;12.80;99.90;;;;;;5097930;28;20040;-68
2023/01/01 05:27:32;;;;;;;0.95;0.30;;;12.80;99.90;;;;;;5104307;28;20031;-69
2023/01/01 05:29:58;;;;;;;1.45;0.75;;;12.80;99.90;;;;;;5128913;27;20068;-69
2023/01/01 05:32:23;;;;;;;3.70;0.38;;;12.80;99.90;;;;;;5142774;27;20516;-69
2023/01/01 05:34:50;;;;;;;3.25;0.60;;;12.80;99.90;;;;;;5145096;27;20097;-69
2023/01/01 05:37:16;;;;;;;1.45;0.57;;;12.80;99.90;;;;;;5102228;28;20028;-68
2023/01/01 05:39:41;;;;;;;0.80;0.40;;;12.80;99.90;;;;;;5104101;28;20044;-68
2023/01/01 05:42:07;;;;;;;2.85;0.45;;;12.80;99.90;;;;;;5124331;27;20040;-69
2023/01/01 05:44:32;;;;;;;2.50;0.65;;;12.80;99.90;;;;;;5102291;28;20036;-69
2023/01/01 05:46:58;;;;;;;1.95;0.77;;;12.80;99.90;;;;;;5080997;28;20032;-69
2023/01/01 05:49:23;;;;;;;1.48;0.60;;;12.80;99.90;;;;;;5096880;28;20169;-69
2023/01/01 05:51:49;;;;;;;1.55;0.55;;;12.80;99.90;;;;;;5081270;28;20035;-69
2023/01/01 05:54:14;;;;;;;1.63;0.68;;;12.80;99.90;;;;;;5096408;28;20031;-69
2023/01/01 05:56:40;;;;;;;1.40;0.52;;;12.80;99.90;;;;;;5101812;28;20035;-70
2023/01/01 05:59:05;;;;;;;1.15;0.40;;;12.70;99.90;;;;;;5131577;27;20046;-68
2023/01/01 06:01:31;;;;;;;0.60;0.30;;;12.70;99.90;;;;;;5099173;28;20911;-69
2023/01/01 06:03:58;;;;;;;0.73;0.50;;;12.70;99.90;;;;;;5108269;27;20055;-69
2023/01/01 06:06:27;;;;;;;0.55;0.20;;;12.60;99.90;;;;;;5102242;28;20434;-69
2023/01/01 06:08:57;;;;;;;1.08;0.38;;;12.60;99.90;;;;;;5098134;28;20040;-69
2023/01/01 06:11:23;;;;;;;0.68;0.47;;;12.60;99.90;;;;;;5081482;27;20043;-69
2023/01/01 06:13:51;;;;;;;1.23;0.32;;;12.60;99.90;;;;;;5086224;28;20036;-68
2023/01/01 06:16:17;;;;;;;2.47;0.30;;;12.60;99.90;;;;;;5099644;28;20056;-68
2023/01/01 06:18:43;;;;;;;1.92;1.15;;;12.50;99.90;;;;;;5127333;27;20036;-69
2023/01/01 06:21:14;;;;;;;0.85;0.35;;;12.50;99.90;;;;;;5129942;27;20123;-70
2023/01/01 06:23:40;;;;;;;1.17;0.30;;;12.50;99.90;;;;;;5097600;28;20146;-69
2023/01/01 06:26:17;;;;;;;1.17;0.52;;;12.50;99.90;;;;;;5093402;27;20115;-68
2023/01/01 06:28:43;;;;;;;0.60;0.60;;;12.40;99.90;;;;;;5099174;28;20044;-69
2023/01/01 06:31:11;;;;;;;0.98;0.40;;;12.40;99.90;;;;;;5126372;27;20123;-69
2023/01/01 06:33:38;;;;;;;1.85;0.50;;;12.40;99.90;;;;;;5099608;28;20061;-69
2023/01/01 06:36:06;;;;;;;2.38;0.60;;;12.40;99.90;;;;;;5078373;28;20036;-69
2023/01/01 06:38:37;;;;;;;7.30;0.45;;;12.30;99.90;;;;;;5080114;28;20073;-69
2023/01/01 06:41:06;;;;;;;2.20;0.35;;;12.40;99.90;;;;;;5103747;28;20037;-69
2023/01/01 06:43:34;;;;;;;1.15;0.32;;;12.30;99.90;;;;;;5085222;28;20067;-69
2023/01/01 06:45:59;;;;;;;3.03;0.35;;;12.20;99.90;;;;;;5093960;28;20035;-69
2023/01/01 06:48:25;;;;;;;3.45;0.55;;;12.20;99.90;;;;;;5126686;27;20050;-69
2023/01/01 06:50:50;;;;;;;0.63;0.22;;;12.30;99.90;;;;;;5126768;27;20036;-69
2023/01/01 06:53:16;;;;;;;0.55;0.28;;;12.30;99.90;;;;;;5100016;28;20158;-69
2023/01/01 06:55:47;;;;;;;0.85;0.45;;;12.20;99.90;;;;;;5125122;27;20122;-70
2023/01/01 06:58:13;;;;;;;1.13;0.35;;;12.20;99.90;;;;;;5097353;28;20036;-69
2023/01/01 07:00:38;;;;;;;1.30;0.63;;;12.20;99.90;;;;;;5095695;28;20032;-69
2023/01/01 07:03:04;;;;;;;1.42;0.40;;;12.20;99.90;;;;;;5121334;27;20508;-69
2023/01/01 07:05:30;;;;;;;1.52;0.60;;;12.20;99.90;;;;;;5094558;28;20469;-70
2023/01/01 07:07:55;;;;;;;1.63;0.50;;;12.10;99.90;;;;;;5099238;28;20040;-69
2023/01/01 07:10:21;;;;;;;2.42;0.50;;;12.10;99.90;;;;;;5096772;28;20035;-69
2023/01/01 07:12:46;;;;;;;2.92;0.65;;;12.10;99.90;;;;;;5125359;27;20661;-69
2023/01/01 07:15:12;;;;;;;3.63;1.00;;;12.10;99.90;;;;;;5124578;27;20197;-70
2023/01/01 07:17:37;;;;;;;2.53;0.40;;;12.10;99.90;;;;;;5096914;28;20051;-69
2023/01/01 07:20:03;;;;;;;1.73;0.20;;;12.10;99.90;;;;;;5102726;28;20500;-68
2023/01/01 07:22:29;;;;;;;0.63;0.30;;;12.00;99.90;;;;;;5097572;27;20404;-70
2023/01/01 07:24:54;;;;;;;1.65;0.50;;;12.00;99.90;;;;;;5101532;28;20105;-69
2023/01/01 07:27:20;;;;;;;1.50;0.45;;;12.00;99.90;;;;;;5125864;27;20075;-68
2023/01/01 07:29:45;;;;;;;1.55;0.35;;;12.00;99.90;;;;;;5097576;28;20043;-69
2023/01/01 07:32:14;;;;;;;1.02;0.40;;;11.90;99.90;;;;;;5096336;28;20040;-69
2023/01/01 07:34:40;;;;;;;1.13;0.35;;;12.00;99.90;;;;;;5096812;28;20028;-69
2023/01/01 07:37:05;;;;;;;2.70;0.43;;;12.00;99.90;;;;;;5099797;28;20040;-68
2023/01/01 07:39:31;;;;;;;4.18;0.40;;;11.90;99.90;;;;;;5129222;27;20477;-68
2023/01/01 07:41:56;;;;;;;5.20;0.57;;;11.90;99.90;;;;;;5092765;28;20397;-69
2023/01/01 07:44:22;;;;;;;3.63;0.50;;;11.90;99.90;;;;;;5096493;28;20131;-69
2023/01/01 07:46:47;;;;;;;3.40;0.55;;;11.90;99.90;;;;;;5124321;27;20048;-69
2023/01/01 07:49:13;;;;;;;1.48;0.30;;;11.90;99.90;;;;;;5089768;28;20130;-69
2023/01/01 07:51:39;;;;;;;1.13;0.40;;;11.90;99.90;;;;;;5096545;28;20065;-69
2023/01/01 07:54:04;;;;;;;1.92;0.50;;;11.90;99.90;;;;;;5091989;28;20036;-69
2023/01/01 07:56:30;;;;;;;4.10;0.60;;;11.90;99.90;;;;;;5130882;27;20032;-68
2023/01/01 07:58:55;;;;;;;2.67;0.50;;;11.90;99.90;;;;;;5096096;28;20120;-68
2023/01/01 08:01:21;;;;;;;1.60;0.30;;;11.90;99.90;;;;;;5103279;28;20051;-69
2023/01/01 08:03:51;;;;;;;1.13;0.40;;;11.80;99.90;;;;;;5130292;27;20040;-69
2023/01/01 08:06:17;;;;;;;3.17;0.60;;;11.80;99.90;;;;;;5111182;27;20067;-69
2023/01/01 08:08:42;;;;;;;1.02;0.15;;;11.80;99.90;;;;;;5103224;27;20062;-68
2023/01/01 08:11:08;;;;;;;0.95;0.13;;;11.90;99.90;;;;;;5101277;28;20509;-69
2023/01/01 08:13:34;;;;;;;3.05;0.50;;;11.80;99.90;;;;;;5128061;27;20040;-69
2023/01/01 08:16:00;;;;;;;1.35;0.55;;;11.80;99.90;;;;;;5103279;28;20074;-69
2023/01/01 08:18:25;;;;;;;1.67;0.40;;;11.80;99.90;;;;;;5129686;27;20649;-69
2023/01/01 08:20:51;;;;;;;1.80;0.35;;;11.80;99.90;;;;;;5135631;27;20043;-69
2023/01/01 08:23:17;;;;;;;0.55;0.25;;;11.80;99.90;;;;;;5091632;28;20444;-68
2023/01/01 08:25:42;;;;;;;3.67;0.50;;;11.80;99.90;;;;;;5100474;28;20042;-68
2023/01/01 08:28:09;;;;;;;1.08;0.20;;;11.80;99.90;;;;;;5095696;28;20039;-69
2023/01/01 08:30:34;;;;;;;2.20;0.57;;;11.70;99.90;;;;;;5133543;27;20600;-69
2023/01/01 08:33:00;;;;;;;2.03;0.45;;;11.70;99.90;;;;;;5130275;27;20118;-69
2023/01/01 08:35:25;;;;;;;3.28;0.38;;;11.70;99.90;;;;;;5128404;27;20154;-69
2023/01/01 08:37:51;;;;;;;1.88;0.50;;;11.70;99.90;;;;;;5090417;28;20115;-68
2023/01/01 08:40:16;;;;;;;0.77;0.20;;;11.70;99.90;;;;;;5094240;28;20059;-68
2023/01/01 08:42:42;;;;;;;3.10;1.17;;;11.70;99.90;;;;;;5073724;28;20052;-68
2023/01/01 08:45:08;;;;;;;1.73;0.43;;;11.70;99.90;;;;;;5095511;28;20123;-69
2023/01/01 08:47:34;;;;;;;3.60;0.20;;;11.60;99.90;;;;;;5097489;27;20742;-69
2023/01/01 08:49:59;;;;;;;0.25;0.20;;;11.60;99.90;;;;;;5098405;28;20039;-69
2023/01/01 08:52:25;;;;;;;6.15;0.57;;;11.60;99.90;;;;;;5097836;28;20493;-69
2023/01/01 08:54:50;;;;;;;1.08;0.30;;;11.70;99.90;;;;;;5083615;28;20032;-69
2023/01/01 08:57:16;;;;;;;2.53;0.80;;;11.60;99.90;;;;;;5132029;27;20168;-69
2023/01/01 08:59:42;;;;;;;3.85;0.50;;;11.60;99.90;;;;;;5095398;28;20071;-69
2023/01/01 09:02:09;;;;;;;2.28;0.85;;;11.60;99.90;;;;;;5095421;28;20039;-69
2023/01/01 09:04:34;;;;;;;1.58;0.43;;;11.60;99.90;;;;;;5091983;27;20178;-69
2023/01/01 09:07:00;;;;;;;1.02;0.45;;;11.60;99.90;;;;;;5082557;28;20119;-69
2023/01/01 09:09:25;;;;;;;2.25;0.25;;;11.50;99.90;;;;;;5130965;27;20040;-69
2023/01/01 09:11:53;;;;;;;1.52;0.38;;;11.50;99.90;;;;;;5129799;27;20516;-69
2023/01/01 09:14:19;;;;;;;0.57;0.25;;;11.50;99.90;;;;;;5094919;28;20069;-68
2023/01/01 09:16:45;;;;;;;0.88;0.50;;;11.50;99.90;;;;;;5096044;27;20047;-69
2023/01/01 09:19:11;;;;;;;1.38;0.45;;;11.50;99.90;;;;;;5126588;27;20127;-69
2023/01/01 09:21:37;;;;;;;0.75;0.32;;;11.60;99.90;;;;;;5125932;27;20076;-69
2023/01/01 09:24:03;;;;;;;0.90;0.20;;;11.60;99.90;;;;;;5088033;27;20054;-69
2023/01/01 09:26:28;;;;;;;3.15;0.22;;;11.60;99.90;;;;;;5089483;28;20112;-69
2023/01/01 09:28:54;;;;;;;5.00;0.40;;;11.60;99.90;;;;;;5123134;27;20493;-69
2023/01/01 09:31:19;;;;;;;2.33;0.50;;;11.60;99.90;;;;;;5119784;27;20055;-69
2023/01/01 09:33:45;;;;;;;1.75;0.52;;;11.60;99.90;;;;;;5069734;28;20043;-68
2023/01/01 09:36:15;;;;;;;4.07;1.15;;;11.60;99.90;;;;;;5090883;27;20101;-70
2023/01/01 09:38:40;;;;;;;1.02;0.35;;;11.60;99.90;;;;;;5123607;27;20135;-68
2023/01/01 09:41:12;;;;;;;3.58;1.20;;;11.60;99.90;;;;;;5097656;27;20054;-69
2023/01/01 09:43:54;;;;;;;5.65;0.65;;;11.60;99.90;;;;;;5124909;27;20317;-69
2023/01/01 09:46:23;;;;;;;3.30;0.57;;;11.60;99.90;;;;;;5119989;27;20040;-69
2023/01/01 09:48:58;;;;;;;1.45;0.20;;;11.60;99.90;;;;;;5088395;27;20044;-68
2023/01/01 09:51:26;;;;;;;3.20;0.70;;;11.60;99.90;;;;;;5090193;27;20043;-68
2023/01/01 09:54:05;;;;;;;3.30;0.52;;;11.60;99.90;;;;;;5107963;27;20043;-68
2023/01/01 09:56:34;;;;;;;2.75;0.45;;;11.60;99.90;;;;;;5104411;27;20507;-72
2023/01/01 09:59:00;;;;;;;3.30;0.40;;;11.50;99.90;;;;;;5079329;28;20039;-70
2023/01/01 10:01:31;;;;;;;3.83;0.30;;;11.60;99.90;;;;;;5090285;27;20047;-69
2023/01/01 10:04:10;;;;;;;0.88;0.30;;;11.50;99.90;;;;;;5114812;27;20051;-69
2023/01/01 10:06:43;;;;;;;0.52;0.47;;;11.60;99.90;;;;;;5076612;28;20046;-69
2023/01/01 10:09:34;;;;;;;3.35;0.52;;;11.50;99.90;;;;;;5095577;27;20040;-69
2023/01/01 10:12:09;;;;;;;0.85;0.40;;;11.50;99.90;;;;;;5092982;27;20497;-68
2023/01/01 10:14:44;;;;;;;2.05;0.57;;;11.60;99.90;;;;;;5091165;27;20298;-69
2023/01/01 10:17:16;;;;;;;3.15;0.28;;;11.50;99.90;;;;;;5073691;27;20043;-68
2023/01/01 10:19:50;;;;;;;1.17;0.35;;;11.50;99.90;;;;;;5109651;27;20416;-69
2023/01/01 10:22:27;;;;;;;1.17;0.43;;;11.40;99.90;;;;;;5094999;27;20628;-69
2023/01/01 10:25:11;;;;;;;1.75;0.52;;;11.40;99.90;;;;;;5137420;27;20070;-69
2023/01/01 10:27:43;;;;;;;1.83;0.40;;;11.40;99.90;;;;;;5101011;28;20032;-70
2023/01/01 10:30:18;;;;;;;4.50;0.38;;;11.40;99.90;;;;;;5093477;28;20050;-67
2023/01/01 10:32:48;;;;;;;5.97;1.20;;;11.40;99.90;;;;;;5089629;28;20119;-69
2023/01/01 10:35:29;;;;;;;2.42;0.50;;;11.40;99.90;;;;;;5096328;27;20032;-69
2023/01/01 10:37:57;;;;;;;2.72;0.57;;;11.40;99.90;;;;;;5088909;27;20036;-69
2023/01/01 10:40:28;;;;;;;3.97;0.60;;;11.40;99.90;;;;;;5083780;28;20052;-69
2023/01/01 10:42:59;;;;;;;0.98;0.38;;;11.50;99.90;;;;;;5084455;28;20040;-68
2023/01/01 10:45:34;;;;;;;1.83;0.43;;;11.50;99.90;;;;;;5101797;28;20040;-69
2023/01/01 10:48:22;;;;;;;5.87;0.63;;;11.50;99.90;;;;;;5101135;28;20046;-69
2023/01/01 10:50:51;;;;;;;0.70;0.40;;;11.60;99.90;;;;;;5101073;28;20493;-69
2023/01/01 10:53:25;;;;;;;8.68;0.85;;;11.60;99.90;;;;;;5097384;27;20047;-69
2023/01/01 10:56:02;;;;;;;1.52;0.70;;;11.60;99.90;;;;;;5088127;28;20080;-68
2023/01/01 10:58:44;;;;;;;0.57;0.20;;;11.60;99.90;;;;;;5135184;27;20127;-69
2023/01/01 11:01:16;;;;;;;2.28;0.45;;;11.60;99.90;;;;;;5096886;27;20036;-69
2023/01/01 11:03:54;;;;;;;1.80;0.40;;;11.70;99.90;;;;;;5102043;27;20044;-69
2023/01/01 11:06:23;;;;;;;0.57;0.20;;;11.60;99.90;;;;;;5099716;28;20035;-69
2023/01/01 11:08:54;;;;;;;3.63;0.30;;;11.70;99.90;;;;;;5078393;28;20042;-69
2023/01/01 11:11:34;;;;;;;0.43;0.35;;;11.70;99.90;;;;;;5103046;28;20046;-68
2023/01/01 11:14:05;;;;;;;3.00;0.25;;;11.70;99.90;;;;;;5081418;28;20035;-70
2023/01/01 11:16:31;;;;;;;1.27;0.20;;;11.70;99.90;;;;;;5095515;28;20612;-70
2023/01/01 11:19:05;;;;;;;1.85;0.50;;;11.80;99.90;;;;;;5125412;27;20031;-71
2023/01/01 11:21:32;;;;;;;0.88;0.28;;;11.70;99.90;;;;;;5092465;28;20209;-68
2023/01/01 11:24:19;;;;;;;3.88;0.22;;;11.70;99.90;;;;;;5095885;28;20131;-69
2023/01/01 11:26:45;;;;;;;3.97;0.52;;;11.70;99.90;;;;;;5131057;27;20035;-68
2023/01/01 11:29:23;;;;;;;4.20;0.40;;;11.70;99.90;;;;;;5089048;27;20043;-69
2023/01/01 11:31:50;;;;;;;2.78;0.57;;;11.70;99.90;;;;;;5092075;28;20355;-68
2023/01/01 11:34:38;;;;;;;2.42;0.40;;;11.70;99.90;;;;;;5100008;28;20420;-68
2023/01/01 11:37:12;;;;;;;4.95;0.63;;;11.70;99.90;;;;;;5099691;28;20088;-68
2023/01/01 11:39:43;;;;;;;2.55;0.50;;;11.70;99.90;;;;;;5097237;27;20064;-69
2023/01/01 11:42:22;;;;;;;4.03;0.40;;;11.70;99.90;;;;;;5098130;28;20049;-68
2023/01/01 11:44:55;;;;;;;3.17;0.65;;;11.70;99.90;;;;;;5095093;28;20176;-68
2023/01/01 11:47:23;;;;;;;2.10;0.80;;;11.80;99.90;;;;;;5091795;28;20369;-69
2023/01/01 11:49:55;;;;;;;0.73;0.28;;;11.80;99.90;;;;;;5092573;28;20043;-69
2023/01/01 11:52:51;;;;;;;1.75;0.60;;;11.80;99.90;;;;;;5099319;28;20097;-68
2023/01/01 11:55:34;;;;;;;6.13;0.50;;;11.80;99.90;;;;;;5126803;27;20130;-68
2023/01/01 11:58:23;;;;;;;0.77;0.30;;;11.80;99.90;;;;;;5073687;28;20039;-68
2023/01/01 12:00:53;;;;;;;1.00;0.40;;;11.90;99.90;;;;;;5092606;28;20031;-68
2023/01/01 12:03:34;;;;;;;1.42;0.40;;;11.90;99.90;;;;;;5098453;28;20443;-68
2023/01/01 12:06:05;;;;;;;1.02;0.28;;;11.90;99.90;;;;;;5095251;28;20054;-68
2023/01/01 12:08:37;;;;;;;1.65;0.25;;;11.90;99.90;;;;;;5100267;28;20398;-68
2023/01/01 12:11:25;;;;;;;3.80;0.38;;;11.90;99.90;;;;;;5081042;28;20067;-69
2023/01/01 12:13:58;;;;;;;3.65;0.22;;;11.90;99.90;;;;;;5078686;28;20277;-68
2023/01/01 12:16:46;;;;;;;1.63;0.40;;;11.80;99.90;;;;;;5095546;28;20093;-69
2023/01/01 12:19:22;;;;;;;0.95;0.40;;;11.90;99.90;;;;;;5092872;28;20496;-68
2023/01/01 12:21:51;;;;;;;1.58;0.38;;;11.90;99.90;;;;;;5094844;28;20093;-68
2023/01/01 12:24:17;;;;;;;2.75;0.93;;;11.90;99.90;;;;;;5120419;27;20680;-70
2023/01/01 12:26:52;;;;;;;6.95;0.63;;;11.90;99.90;;;;;;5092515;28;20041;-68
2023/01/01 12:29:28;;;;;;;2.60;0.88;;;11.90;99.90;;;;;;5090474;28;20619;-68
2023/01/01 12:32:15;;;;;;;2.33;0.30;;;11.90;99.90;;;;;;5086850;28;20063;-68
2023/01/01 12:35:02;;;;;;;2.08;0.73;;;11.90;99.90;;;;;;5087519;28;20040;-68
2023/01/01 12:38:02;;;;;;;1.05;0.22;;;11.90;99.90;;;;;;5087493;28;20036;-68
2023/01/01 12:40:37;;;;;;;6.55;0.98;;;11.90;99.90;;;;;;5087828;28;20047;-68
2023/01/01 12:43:03;;;;;;;;;;;11.90;99.90;;;;;;5071126;28;20139;-68
2023/01/01 12:45:54;;;;;;;1.67;0.25;;;11.90;99.90;;;;;;5133719;27;20359;-68
2023/01/01 12:48:35;;;;;;;0.52;0.20;;;11.80;99.90;;;;;;5092671;27;20043;-68
2023/01/01 12:51:15;;;;;;;6.35;0.88;;;11.80;99.90;;;;;;5091005;28;20072;-68
2023/01/01 12:53:40;;;;;;;0.80;0.30;;;11.80;99.90;;;;;;5091596;28;20119;-68
2023/01/01 12:56:18;;;;;;;3.28;0.45;;;11.80;99.90;;;;;;5125489;27;20512;-68
2023/01/01 12:58:56;;;;;;;2.28;0.20;;;11.80;99.90;;;;;;5091602;28;20481;-68
2023/01/01 13:01:27;;;;;;;4.78;0.30;;;11.70;99.90;;;;;;5092663;28;20074;-68
2023/01/01 13:04:06;;;;;;;2.90;0.50;;;11.80;99.90;;;;;;5091096;27;20035;-68
2023/01/01 13:06:46;;;;;;;2.47;0.65;;;11.80;99.90;;;;;;5092204;28;20404;-68
2023/01/01 13:09:19;;;;;;;1.15;0.20;;;11.70;99.90;;;;;;5091058;28;20043;-68